sensor_id;sensor_type;location;lat;lon;timestamp;temperature;humidity
76759;DHT22;65701;45.588;5.186;2023-07-20T00:00:52;21.19;59.56
76759;DHT22;65701;45.588;5.186;2023-07-20T00:03:19;21.20;59.59
76759;DHT22;65701;45.588;5.186;2023-07-20T00:05:50;21.16;59.64
76759;DHT22;65701;45.588;5.186;2023-07-20T00:08:17;21.10;59.84
76759;DHT22;65701;45.588;5.186;2023-07-20T00:10:43;21.08;59.89
76759;DHT22;65701;45.588;5.186;2023-07-20T00:13:10;21.06;59.88
76759;DHT22;65701;45.588;5.186;2023-07-20T00:15:36;21.03;59.95
76759;DHT22;65701;45.588;5.186;2023-07-20T00:18:03;21.02;60.02
76759;DHT22;65701;45.588;5.186;2023-07-20T00:20:29;21.00;60.16
76759;DHT22;65701;45.588;5.186;2023-07-20T00:22:54;21.02;60.22
76759;DHT22;65701;45.588;5.186;2023-07-20T00:25:20;20.99;60.27
76759;DHT22;65701;45.588;5.186;2023-07-20T00:27:46;20.95;60.65
76759;DHT22;65701;45.588;5.186;2023-07-20T00:30:12;20.92;60.57
76759;DHT22;65701;45.588;5.186;2023-07-20T00:32:37;20.91;60.55
76759;DHT22;65701;45.588;5.186;2023-07-20T00:35:03;20.92;60.65
76759;DHT22;65701;45.588;5.186;2023-07-20T00:37:29;20.95;60.47
76759;DHT22;65701;45.588;5.186;2023-07-20T00:39:54;20.99;60.35
76759;DHT22;65701;45.588;5.186;2023-07-20T00:42:20;21.02;60.38
76759;DHT22;65701;45.588;5.186;2023-07-20T00:44:45;21.03;60.38
76759;DHT22;65701;45.588;5.186;2023-07-20T00:47:11;21.02;60.38
76759;DHT22;65701;45.588;5.186;2023-07-20T00:49:37;21.05;60.37
76759;DHT22;65701;45.588;5.186;2023-07-20T00:52:03;21.03;60.27
76759;DHT22;65701;45.588;5.186;2023-07-20T00:54:29;21.05;60.29
76759;DHT22;65701;45.588;5.186;2023-07-20T00:56:55;21.00;60.30
76759;DHT22;65701;45.588;5.186;2023-07-20T00:59:21;20.99;60.31
76759;DHT22;65701;45.588;5.186;2023-07-20T01:01:46;20.96;60.43
76759;DHT22;65701;45.588;5.186;2023-07-20T01:04:12;20.96;60.38
76759;DHT22;65701;45.588;5.186;2023-07-20T01:09:28;21.00;60.63
76759;DHT22;65701;45.588;5.186;2023-07-20T01:12:33;21.05;60.55
76759;DHT22;65701;45.588;5.186;2023-07-20T01:15:01;21.05;60.58
76759;DHT22;65701;45.588;5.186;2023-07-20T01:17:26;21.06;60.49
76759;DHT22;65701;45.588;5.186;2023-07-20T01:19:52;21.06;60.62
76759;DHT22;65701;45.588;5.186;2023-07-20T01:30:59;21.15;60.72
76759;DHT22;65701;45.588;5.186;2023-07-20T01:33:28;21.18;60.58
76759;DHT22;65701;45.588;5.186;2023-07-20T01:35:57;21.20;60.51
76759;DHT22;65701;45.588;5.186;2023-07-20T01:38:24;21.18;60.50
76759;DHT22;65701;45.588;5.186;2023-07-20T01:40:50;21.18;60.47
76759;DHT22;65701;45.588;5.186;2023-07-20T01:43:17;21.16;60.44
76759;DHT22;65701;45.588;5.186;2023-07-20T01:45:43;21.12;60.54
76759;DHT22;65701;45.588;5.186;2023-07-20T01:48:08;21.09;60.44
76759;DHT22;65701;45.588;5.186;2023-07-20T01:50:34;21.09;60.42
76759;DHT22;65701;45.588;5.186;2023-07-20T01:53:00;21.03;60.49
76759;DHT22;65701;45.588;5.186;2023-07-20T01:55:25;21.00;60.57
76759;DHT22;65701;45.588;5.186;2023-07-20T01:57:51;20.96;60.54
76759;DHT22;65701;45.588;5.186;2023-07-20T02:00:17;20.96;60.59
76759;DHT22;65701;45.588;5.186;2023-07-20T02:02:44;20.91;60.60
76759;DHT22;65701;45.588;5.186;2023-07-20T02:05:09;20.85;60.72
76759;DHT22;65701;45.588;5.186;2023-07-20T02:07:35;20.84;60.82
76759;DHT22;65701;45.588;5.186;2023-07-20T02:10:00;20.77;60.83
76759;DHT22;65701;45.588;5.186;2023-07-20T02:12:26;20.72;60.91
76759;DHT22;65701;45.588;5.186;2023-07-20T02:14:51;20.67;60.90
76759;DHT22;65701;45.588;5.186;2023-07-20T02:17:18;20.60;61.13
76759;DHT22;65701;45.588;5.186;2023-07-20T02:19:43;20.55;61.22
76759;DHT22;65701;45.588;5.186;2023-07-20T02:22:09;20.47;61.33
76759;DHT22;65701;45.588;5.186;2023-07-20T02:24:34;20.45;61.47
76759;DHT22;65701;45.588;5.186;2023-07-20T02:27:00;20.43;61.54
76759;DHT22;65701;45.588;5.186;2023-07-20T02:29:25;20.34;61.75
76759;DHT22;65701;45.588;5.186;2023-07-20T02:31:51;20.29;62.01
76759;DHT22;65701;45.588;5.186;2023-07-20T02:34:16;20.23;62.23
76759;DHT22;65701;45.588;5.186;2023-07-20T02:36:41;20.17;62.35
76759;DHT22;65701;45.588;5.186;2023-07-20T02:39:08;20.13;62.35
76759;DHT22;65701;45.588;5.186;2023-07-20T02:41:34;20.12;62.31
76759;DHT22;65701;45.588;5.186;2023-07-20T02:44:00;20.09;62.38
76759;DHT22;65701;45.588;5.186;2023-07-20T02:46:26;20.05;62.37
76759;DHT22;65701;45.588;5.186;2023-07-20T02:48:52;20.00;62.49
76759;DHT22;65701;45.588;5.186;2023-07-20T02:51:17;20.02;62.60
76759;DHT22;65701;45.588;5.186;2023-07-20T02:53:43;20.00;62.69
76759;DHT22;65701;45.588;5.186;2023-07-20T02:56:08;19.98;62.85
76759;DHT22;65701;45.588;5.186;2023-07-20T02:58:34;19.92;62.82
76759;DHT22;65701;45.588;5.186;2023-07-20T03:01:03;19.89;62.90
76759;DHT22;65701;45.588;5.186;2023-07-20T03:03:29;19.82;63.02
76759;DHT22;65701;45.588;5.186;2023-07-20T03:05:54;19.75;63.15
76759;DHT22;65701;45.588;5.186;2023-07-20T03:08:21;19.74;63.29
76759;DHT22;65701;45.588;5.186;2023-07-20T03:10:47;19.64;63.25
76759;DHT22;65701;45.588;5.186;2023-07-20T03:13:12;19.60;63.41
76759;DHT22;65701;45.588;5.186;2023-07-20T03:15:39;19.54;63.46
76759;DHT22;65701;45.588;5.186;2023-07-20T03:18:04;19.47;63.57
76759;DHT22;65701;45.588;5.186;2023-07-20T03:20:31;19.46;63.61
76759;DHT22;65701;45.588;5.186;2023-07-20T03:22:56;19.40;63.72
76759;DHT22;65701;45.588;5.186;2023-07-20T03:25:22;19.37;63.78
76759;DHT22;65701;45.588;5.186;2023-07-20T03:27:48;19.33;63.73
76759;DHT22;65701;45.588;5.186;2023-07-20T03:30:13;19.28;63.71
76759;DHT22;65701;45.588;5.186;2023-07-20T03:32:39;19.24;63.70
76759;DHT22;65701;45.588;5.186;2023-07-20T03:35:04;19.19;63.74
76759;DHT22;65701;45.588;5.186;2023-07-20T03:37:30;19.13;63.83
76759;DHT22;65701;45.588;5.186;2023-07-20T03:39:55;19.09;64.04
76759;DHT22;65701;45.588;5.186;2023-07-20T03:42:21;19.09;64.09
76759;DHT22;65701;45.588;5.186;2023-07-20T03:44:46;19.05;64.16
76759;DHT22;65701;45.588;5.186;2023-07-20T03:47:12;19.02;64.25
76759;DHT22;65701;45.588;5.186;2023-07-20T03:49:37;18.99;64.28
76759;DHT22;65701;45.588;5.186;2023-07-20T03:52:03;18.94;64.32
76759;DHT22;65701;45.588;5.186;2023-07-20T03:54:29;18.94;64.44
76759;DHT22;65701;45.588;5.186;2023-07-20T03:56:54;18.89;64.55
76759;DHT22;65701;45.588;5.186;2023-07-20T03:59:20;18.88;64.64
76759;DHT22;65701;45.588;5.186;2023-07-20T04:01:45;18.84;64.77
76759;DHT22;65701;45.588;5.186;2023-07-20T04:04:11;18.85;64.84
76759;DHT22;65701;45.588;5.186;2023-07-20T04:06:36;18.84;65.13
76759;DHT22;65701;45.588;5.186;2023-07-20T04:09:03;18.84;65.09
76759;DHT22;65701;45.588;5.186;2023-07-20T04:11:30;18.82;65.10
76759;DHT22;65701;45.588;5.186;2023-07-20T04:13:55;18.79;65.19
76759;DHT22;65701;45.588;5.186;2023-07-20T04:16:21;18.76;65.23
76759;DHT22;65701;45.588;5.186;2023-07-20T04:18:47;18.72;65.19
76759;DHT22;65701;45.588;5.186;2023-07-20T04:21:12;18.72;65.19
76759;DHT22;65701;45.588;5.186;2023-07-20T04:23:38;18.69;65.31
76759;DHT22;65701;45.588;5.186;2023-07-20T04:26:03;18.71;65.50
76759;DHT22;65701;45.588;5.186;2023-07-20T04:28:28;18.73;65.69
76759;DHT22;65701;45.588;5.186;2023-07-20T04:30:54;18.78;65.76
76759;DHT22;65701;45.588;5.186;2023-07-20T04:33:20;18.79;65.86
76759;DHT22;65701;45.588;5.186;2023-07-20T04:35:52;18.85;65.82
76759;DHT22;65701;45.588;5.186;2023-07-20T04:38:19;18.87;65.83
76759;DHT22;65701;45.588;5.186;2023-07-20T04:40:45;18.88;65.85
76759;DHT22;65701;45.588;5.186;2023-07-20T04:43:11;18.94;65.95
76759;DHT22;65701;45.588;5.186;2023-07-20T04:45:37;19.00;66.04
76759;DHT22;65701;45.588;5.186;2023-07-20T04:48:03;19.06;66.28
76759;DHT22;65701;45.588;5.186;2023-07-20T04:50:28;19.12;66.56
76759;DHT22;65701;45.588;5.186;2023-07-20T04:52:54;19.17;66.64
76759;DHT22;65701;45.588;5.186;2023-07-20T04:55:19;19.24;66.57
76759;DHT22;65701;45.588;5.186;2023-07-20T04:57:44;19.34;66.66
76759;DHT22;65701;45.588;5.186;2023-07-20T05:00:10;19.44;66.88
76759;DHT22;65701;45.588;5.186;2023-07-20T05:02:38;19.53;66.83
76759;DHT22;65701;45.588;5.186;2023-07-20T05:05:04;19.61;66.99
76759;DHT22;65701;45.588;5.186;2023-07-20T05:07:31;19.70;67.07
76759;DHT22;65701;45.588;5.186;2023-07-20T05:09:57;19.81;67.09
76759;DHT22;65701;45.588;5.186;2023-07-20T05:12:23;19.90;67.23
76759;DHT22;65701;45.588;5.186;2023-07-20T05:14:48;20.04;67.28
76759;DHT22;65701;45.588;5.186;2023-07-20T05:17:13;20.15;67.10
76759;DHT22;65701;45.588;5.186;2023-07-20T05:19:39;20.29;67.02
76759;DHT22;65701;45.588;5.186;2023-07-20T05:22:04;20.41;67.18
76759;DHT22;65701;45.588;5.186;2023-07-20T05:24:31;20.55;67.22
76759;DHT22;65701;45.588;5.186;2023-07-20T05:26:58;20.68;67.15
76759;DHT22;65701;45.588;5.186;2023-07-20T05:29:23;20.85;66.92
76759;DHT22;65701;45.588;5.186;2023-07-20T05:31:49;20.99;66.74
76759;DHT22;65701;45.588;5.186;2023-07-20T05:34:14;21.15;66.61
76759;DHT22;65701;45.588;5.186;2023-07-20T05:36:40;21.30;66.33
76759;DHT22;65701;45.588;5.186;2023-07-20T05:39:06;21.40;66.18
76759;DHT22;65701;45.588;5.186;2023-07-20T05:41:31;21.55;65.95
76759;DHT22;65701;45.588;5.186;2023-07-20T05:43:57;21.71;65.46
76759;DHT22;65701;45.588;5.186;2023-07-20T05:46:22;21.84;65.09
76759;DHT22;65701;45.588;5.186;2023-07-20T05:48:49;21.95;64.76
76759;DHT22;65701;45.588;5.186;2023-07-20T05:51:15;22.06;64.52
76759;DHT22;65701;45.588;5.186;2023-07-20T05:53:40;22.17;64.19
76759;DHT22;65701;45.588;5.186;2023-07-20T05:56:06;22.29;63.92
76759;DHT22;65701;45.588;5.186;2023-07-20T05:58:35;22.36;63.41
76759;DHT22;65701;45.588;5.186;2023-07-20T06:01:00;22.46;63.28
76759;DHT22;65701;45.588;5.186;2023-07-20T06:03:27;22.54;63.07
76759;DHT22;65701;45.588;5.186;2023-07-20T06:05:58;22.63;62.78
76759;DHT22;65701;45.588;5.186;2023-07-20T06:08:24;22.74;62.82
76759;DHT22;65701;45.588;5.186;2023-07-20T06:10:50;22.84;62.90
76759;DHT22;65701;45.588;5.186;2023-07-20T06:13:19;23.01;62.55
76759;DHT22;65701;45.588;5.186;2023-07-20T06:15:44;23.08;62.00
76759;DHT22;65701;45.588;5.186;2023-07-20T06:18:09;23.19;61.78
76759;DHT22;65701;45.588;5.186;2023-07-20T06:20:35;23.27;61.51
76759;DHT22;65701;45.588;5.186;2023-07-20T06:23:00;23.35;61.32
76759;DHT22;65701;45.588;5.186;2023-07-20T06:25:26;23.43;60.85
76759;DHT22;65701;45.588;5.186;2023-07-20T06:27:51;23.50;60.23
76759;DHT22;65701;45.588;5.186;2023-07-20T06:30:17;23.60;60.45
76759;DHT22;65701;45.588;5.186;2023-07-20T06:32:43;23.67;60.17
76759;DHT22;65701;45.588;5.186;2023-07-20T06:35:08;23.73;59.61
76759;DHT22;65701;45.588;5.186;2023-07-20T06:37:34;23.75;59.32
76759;DHT22;65701;45.588;5.186;2023-07-20T06:40:01;23.81;58.79
76759;DHT22;65701;45.588;5.186;2023-07-20T06:42:27;23.81;58.72
76759;DHT22;65701;45.588;5.186;2023-07-20T06:44:52;23.77;58.36
76759;DHT22;65701;45.588;5.186;2023-07-20T06:47:17;23.87;58.50
76759;DHT22;65701;45.588;5.186;2023-07-20T06:49:43;23.81;58.32
76759;DHT22;65701;45.588;5.186;2023-07-20T06:52:08;23.93;58.31
76759;DHT22;65701;45.588;5.186;2023-07-20T06:54:34;23.97;58.42
76759;DHT22;65701;45.588;5.186;2023-07-20T06:56:59;24.01;58.29
76759;DHT22;65701;45.588;5.186;2023-07-20T06:59:25;24.11;58.13
76759;DHT22;65701;45.588;5.186;2023-07-20T07:01:50;24.21;58.39
76759;DHT22;65701;45.588;5.186;2023-07-20T07:04:16;24.36;58.23
76759;DHT22;65701;45.588;5.186;2023-07-20T07:06:41;24.40;57.89
76759;DHT22;65701;45.588;5.186;2023-07-20T07:09:07;24.43;57.75
76759;DHT22;65701;45.588;5.186;2023-07-20T07:11:33;24.52;57.64
76759;DHT22;65701;45.588;5.186;2023-07-20T07:13:59;24.46;57.08
76759;DHT22;65701;45.588;5.186;2023-07-20T07:16:25;24.64;57.33
76759;DHT22;65701;45.588;5.186;2023-07-20T07:18:51;24.71;57.12
76759;DHT22;65701;45.588;5.186;2023-07-20T07:21:16;24.77;56.98
76759;DHT22;65701;45.588;5.186;2023-07-20T07:23:43;24.86;57.08
76759;DHT22;65701;45.588;5.186;2023-07-20T07:26:09;24.95;56.97
76759;DHT22;65701;45.588;5.186;2023-07-20T07:28:34;25.12;56.97
76759;DHT22;65701;45.588;5.186;2023-07-20T07:31:00;25.14;56.53
76759;DHT22;65701;45.588;5.186;2023-07-20T07:33:26;25.25;56.60
76759;DHT22;65701;45.588;5.186;2023-07-20T07:35:52;25.28;56.10
76759;DHT22;65701;45.588;5.186;2023-07-20T07:38:18;25.29;56.03
76759;DHT22;65701;45.588;5.186;2023-07-20T07:40:43;25.41;55.94
76759;DHT22;65701;45.588;5.186;2023-07-20T07:43:09;25.53;55.79
76759;DHT22;65701;45.588;5.186;2023-07-20T07:45:35;25.63;55.42
76759;DHT22;65701;45.588;5.186;2023-07-20T07:48:07;25.80;55.43
76759;DHT22;65701;45.588;5.186;2023-07-20T07:50:33;25.91;55.25
76759;DHT22;65701;45.588;5.186;2023-07-20T07:53:00;26.11;55.00
76759;DHT22;65701;45.588;5.186;2023-07-20T07:55:25;26.18;54.56
76759;DHT22;65701;45.588;5.186;2023-07-20T07:57:54;26.31;54.27
76759;DHT22;65701;45.588;5.186;2023-07-20T08:00:20;26.39;54.36
76759;DHT22;65701;45.588;5.186;2023-07-20T08:02:46;26.51;54.74
76759;DHT22;65701;45.588;5.186;2023-07-20T08:05:13;26.70;54.39
76759;DHT22;65701;45.588;5.186;2023-07-20T08:07:39;26.89;54.28
76759;DHT22;65701;45.588;5.186;2023-07-20T08:10:05;27.00;53.72
76759;DHT22;65701;45.588;5.186;2023-07-20T08:12:31;27.00;53.20
76759;DHT22;65701;45.588;5.186;2023-07-20T08:14:56;27.11;52.90
76759;DHT22;65701;45.588;5.186;2023-07-20T08:17:22;27.15;52.31
76759;DHT22;65701;45.588;5.186;2023-07-20T08:19:47;27.17;51.20
76759;DHT22;65701;45.588;5.186;2023-07-20T08:22:13;27.24;51.74
76759;DHT22;65701;45.588;5.186;2023-07-20T08:24:40;27.34;51.68
76759;DHT22;65701;45.588;5.186;2023-07-20T08:27:05;27.31;51.31
76759;DHT22;65701;45.588;5.186;2023-07-20T08:29:31;27.12;49.88
76759;DHT22;65701;45.588;5.186;2023-07-20T08:31:56;27.17;49.70
76759;DHT22;65701;45.588;5.186;2023-07-20T08:34:22;27.04;49.54
76759;DHT22;65701;45.588;5.186;2023-07-20T08:36:47;27.14;49.32
76759;DHT22;65701;45.588;5.186;2023-07-20T08:39:12;27.28;49.09
76759;DHT22;65701;45.588;5.186;2023-07-20T08:41:38;27.21;49.15
76759;DHT22;65701;45.588;5.186;2023-07-20T08:44:05;27.11;48.31
76759;DHT22;65701;45.588;5.186;2023-07-20T08:46:31;27.20;48.59
76759;DHT22;65701;45.588;5.186;2023-07-20T08:48:57;27.30;48.71
76759;DHT22;65701;45.588;5.186;2023-07-20T08:51:23;27.37;48.78
76759;DHT22;65701;45.588;5.186;2023-07-20T08:53:51;27.30;48.27
76759;DHT22;65701;45.588;5.186;2023-07-20T08:56:18;27.55;48.81
76759;DHT22;65701;45.588;5.186;2023-07-20T08:58:45;27.63;48.41
76759;DHT22;65701;45.588;5.186;2023-07-20T09:01:12;27.69;48.23
76759;DHT22;65701;45.588;5.186;2023-07-20T09:03:38;27.85;48.76
76759;DHT22;65701;45.588;5.186;2023-07-20T09:06:05;27.90;48.96
76759;DHT22;65701;45.588;5.186;2023-07-20T09:08:31;28.06;49.90
76759;DHT22;65701;45.588;5.186;2023-07-20T09:10:57;28.21;49.97
76759;DHT22;65701;45.588;5.186;2023-07-20T09:13:25;28.33;49.40
76759;DHT22;65701;45.588;5.186;2023-07-20T09:15:53;28.37;48.47
76759;DHT22;65701;45.588;5.186;2023-07-20T09:18:24;28.38;47.78
76759;DHT22;65701;45.588;5.186;2023-07-20T09:20:50;28.44;47.33
76759;DHT22;65701;45.588;5.186;2023-07-20T09:23:15;28.51;47.72
76759;DHT22;65701;45.588;5.186;2023-07-20T09:25:40;28.47;47.57
76759;DHT22;65701;45.588;5.186;2023-07-20T09:28:06;28.42;47.22
76759;DHT22;65701;45.588;5.186;2023-07-20T09:30:32;28.53;47.21
76759;DHT22;65701;45.588;5.186;2023-07-20T09:32:57;28.58;47.56
76759;DHT22;65701;45.588;5.186;2023-07-20T09:35:24;28.76;48.24
76759;DHT22;65701;45.588;5.186;2023-07-20T09:40:20;29.04;48.68
76759;DHT22;65701;45.588;5.186;2023-07-20T09:42:47;29.14;47.75
76759;DHT22;65701;45.588;5.186;2023-07-20T09:45:13;29.20;46.95
76759;DHT22;65701;45.588;5.186;2023-07-20T09:47:39;29.02;46.23
76759;DHT22;65701;45.588;5.186;2023-07-20T09:50:07;29.08;45.67
76759;DHT22;65701;45.588;5.186;2023-07-20T09:52:39;28.89;44.74
76759;DHT22;65701;45.588;5.186;2023-07-20T09:55:12;28.73;44.70
76759;DHT22;65701;45.588;5.186;2023-07-20T09:57:38;28.62;44.36
76759;DHT22;65701;45.588;5.186;2023-07-20T10:00:06;28.61;43.90
76759;DHT22;65701;45.588;5.186;2023-07-20T10:02:41;28.88;44.48
76759;DHT22;65701;45.588;5.186;2023-07-20T10:05:08;29.04;45.18
76759;DHT22;65701;45.588;5.186;2023-07-20T10:07:40;29.20;45.25
76759;DHT22;65701;45.588;5.186;2023-07-20T10:10:09;29.35;45.53
76759;DHT22;65701;45.588;5.186;2023-07-20T10:12:37;29.51;45.41
76759;DHT22;65701;45.588;5.186;2023-07-20T10:15:23;29.51;44.63
76759;DHT22;65701;45.588;5.186;2023-07-20T10:18:12;29.51;44.47
76759;DHT22;65701;45.588;5.186;2023-07-20T10:20:40;29.38;43.84
76759;DHT22;65701;45.588;5.186;2023-07-20T10:23:09;29.55;44.03
76759;DHT22;65701;45.588;5.186;2023-07-20T10:25:35;29.52;43.93
76759;DHT22;65701;45.588;5.186;2023-07-20T10:28:04;29.48;43.68
76759;DHT22;65701;45.588;5.186;2023-07-20T10:30:30;29.51;44.22
76759;DHT22;65701;45.588;5.186;2023-07-20T10:32:56;29.54;43.79
76759;DHT22;65701;45.588;5.186;2023-07-20T10:35:22;29.47;43.88
76759;DHT22;65701;45.588;5.186;2023-07-20T10:37:53;29.58;44.07
76759;DHT22;65701;45.588;5.186;2023-07-20T10:43:16;29.54;43.82
76759;DHT22;65701;45.588;5.186;2023-07-20T10:45:47;29.59;43.28
76759;DHT22;65701;45.588;5.186;2023-07-20T10:50:45;29.54;43.37
76759;DHT22;65701;45.588;5.186;2023-07-20T10:53:15;29.59;44.25
76759;DHT22;65701;45.588;5.186;2023-07-20T10:55:41;29.76;44.25
76759;DHT22;65701;45.588;5.186;2023-07-20T10:58:13;29.72;43.28
76759;DHT22;65701;45.588;5.186;2023-07-20T11:01:02;29.80;43.00
76759;DHT22;65701;45.588;5.186;2023-07-20T11:03:37;29.63;42.79
76759;DHT22;65701;45.588;5.186;2023-07-20T11:08:55;29.54;42.21
76759;DHT22;65701;45.588;5.186;2023-07-20T11:11:26;29.65;43.23
76759;DHT22;65701;45.588;5.186;2023-07-20T11:14:01;29.54;42.77
76759;DHT22;65701;45.588;5.186;2023-07-20T11:16:42;29.54;42.83
76759;DHT22;65701;45.588;5.186;2023-07-20T11:19:18;29.58;43.24
76759;DHT22;65701;45.588;5.186;2023-07-20T11:21:45;29.75;44.39
76759;DHT22;65701;45.588;5.186;2023-07-20T11:24:11;29.80;43.31
76759;DHT22;65701;45.588;5.186;2023-07-20T11:26:49;30.00;43.31
76759;DHT22;65701;45.588;5.186;2023-07-20T11:29:23;30.05;43.42
76759;DHT22;65701;45.588;5.186;2023-07-20T11:31:50;29.96;42.39
76759;DHT22;65701;45.588;5.186;2023-07-20T11:34:20;29.96;42.03
76759;DHT22;65701;45.588;5.186;2023-07-20T11:36:47;29.93;42.08
76759;DHT22;65701;45.588;5.186;2023-07-20T11:39:16;29.92;42.29
76759;DHT22;65701;45.588;5.186;2023-07-20T11:41:49;29.85;42.72
76759;DHT22;65701;45.588;5.186;2023-07-20T11:44:22;29.57;42.08
76759;DHT22;65701;45.588;5.186;2023-07-20T11:47:11;29.59;41.95
76759;DHT22;65701;45.588;5.186;2023-07-20T11:49:43;29.75;41.43
76759;DHT22;65701;45.588;5.186;2023-07-20T11:52:18;29.66;40.83
76759;DHT22;65701;45.588;5.186;2023-07-20T11:54:44;29.62;41.72
76759;DHT22;65701;45.588;5.186;2023-07-20T11:57:17;29.79;41.76
76759;DHT22;65701;45.588;5.186;2023-07-20T11:59:57;29.85;41.95
76759;DHT22;65701;45.588;5.186;2023-07-20T12:02:24;29.80;41.45
76759;DHT22;65701;45.588;5.186;2023-07-20T12:04:52;29.86;41.50
76759;DHT22;65701;45.588;5.186;2023-07-20T12:07:19;29.88;41.52
76759;DHT22;65701;45.588;5.186;2023-07-20T12:12:37;29.82;41.84
76759;DHT22;65701;45.588;5.186;2023-07-20T12:17:45;29.82;41.52
76759;DHT22;65701;45.588;5.186;2023-07-20T12:20:11;29.88;41.76
76759;DHT22;65701;45.588;5.186;2023-07-20T12:22:40;29.85;41.42
76759;DHT22;65701;45.588;5.186;2023-07-20T12:25:07;29.96;41.74
76759;DHT22;65701;45.588;5.186;2023-07-20T12:27:36;30.00;41.98
76759;DHT22;65701;45.588;5.186;2023-07-20T12:30:06;30.09;42.02
76759;DHT22;65701;45.588;5.186;2023-07-20T12:32:33;30.10;41.58
76759;DHT22;65701;45.588;5.186;2023-07-20T12:34:58;30.14;41.49
76759;DHT22;65701;45.588;5.186;2023-07-20T12:37:27;30.02;40.85
76759;DHT22;65701;45.588;5.186;2023-07-20T12:39:53;30.09;40.87
76759;DHT22;65701;45.588;5.186;2023-07-20T12:42:19;30.07;41.06
76759;DHT22;65701;45.588;5.186;2023-07-20T12:44:44;30.10;41.29
76759;DHT22;65701;45.588;5.186;2023-07-20T12:47:10;29.96;40.63
76759;DHT22;65701;45.588;5.186;2023-07-20T12:49:35;30.00;40.28
76759;DHT22;65701;45.588;5.186;2023-07-20T12:52:01;29.88;40.17
76759;DHT22;65701;45.588;5.186;2023-07-20T12:54:26;29.95;40.40
76759;DHT22;65701;45.588;5.186;2023-07-20T12:56:52;29.95;40.73
76759;DHT22;65701;45.588;5.186;2023-07-20T12:59:17;29.93;40.51
76759;DHT22;65701;45.588;5.186;2023-07-20T13:01:43;29.80;39.66
76759;DHT22;65701;45.588;5.186;2023-07-20T13:04:09;29.80;39.19
76759;DHT22;65701;45.588;5.186;2023-07-20T13:06:35;29.85;39.97
76759;DHT22;65701;45.588;5.186;2023-07-20T13:09:01;29.88;39.78
76759;DHT22;65701;45.588;5.186;2023-07-20T13:11:26;29.89;39.79
76759;DHT22;65701;45.588;5.186;2023-07-20T13:13:53;29.89;39.78
76759;DHT22;65701;45.588;5.186;2023-07-20T13:16:19;29.99;40.28
76759;DHT22;65701;45.588;5.186;2023-07-20T13:18:44;30.03;40.23
76759;DHT22;65701;45.588;5.186;2023-07-20T13:21:10;30.06;40.38
76759;DHT22;65701;45.588;5.186;2023-07-20T13:23:37;30.09;39.88
76759;DHT22;65701;45.588;5.186;2023-07-20T13:26:04;30.10;39.91
76759;DHT22;65701;45.588;5.186;2023-07-20T13:28:29;30.10;39.82
76759;DHT22;65701;45.588;5.186;2023-07-20T13:30:56;29.93;39.17
76759;DHT22;65701;45.588;5.186;2023-07-20T13:33:21;29.76;38.70
76759;DHT22;65701;45.588;5.186;2023-07-20T13:35:47;29.54;38.44
76759;DHT22;65701;45.588;5.186;2023-07-20T13:38:13;29.65;38.59
76759;DHT22;65701;45.588;5.186;2023-07-20T13:40:39;29.54;38.67
76759;DHT22;65701;45.588;5.186;2023-07-20T13:43:04;29.61;38.85
76759;DHT22;65701;45.588;5.186;2023-07-20T13:45:30;29.61;38.79
76759;DHT22;65701;45.588;5.186;2023-07-20T13:47:55;29.65;39.26
76759;DHT22;65701;45.588;5.186;2023-07-20T13:50:21;29.68;39.62
76759;DHT22;65701;45.588;5.186;2023-07-20T13:52:46;29.78;39.75
76759;DHT22;65701;45.588;5.186;2023-07-20T13:55:12;29.69;39.05
76759;DHT22;65701;45.588;5.186;2023-07-20T13:57:37;29.66;38.52
76759;DHT22;65701;45.588;5.186;2023-07-20T14:00:04;29.68;38.63
76759;DHT22;65701;45.588;5.186;2023-07-20T14:02:29;29.68;38.86
76759;DHT22;65701;45.588;5.186;2023-07-20T14:04:55;29.72;39.10
76759;DHT22;65701;45.588;5.186;2023-07-20T14:07:21;29.75;39.11
76759;DHT22;65701;45.588;5.186;2023-07-20T14:09:47;29.75;39.46
76759;DHT22;65701;45.588;5.186;2023-07-20T14:12:12;29.73;39.70
76759;DHT22;65701;45.588;5.186;2023-07-20T14:14:40;29.76;39.23
76759;DHT22;65701;45.588;5.186;2023-07-20T14:17:06;29.78;39.41
76759;DHT22;65701;45.588;5.186;2023-07-20T14:19:32;29.75;39.25
76759;DHT22;65701;45.588;5.186;2023-07-20T14:21:58;29.73;39.30
76759;DHT22;65701;45.588;5.186;2023-07-20T14:24:25;29.72;39.39
76759;DHT22;65701;45.588;5.186;2023-07-20T14:26:51;29.61;38.94
76759;DHT22;65701;45.588;5.186;2023-07-20T14:29:16;29.61;39.03
76759;DHT22;65701;45.588;5.186;2023-07-20T14:31:43;29.51;38.96
76759;DHT22;65701;45.588;5.186;2023-07-20T14:34:10;29.52;39.23
76759;DHT22;65701;45.588;5.186;2023-07-20T14:36:36;29.52;39.26
76759;DHT22;65701;45.588;5.186;2023-07-20T14:39:01;29.50;39.64
76759;DHT22;65701;45.588;5.186;2023-07-20T14:41:27;29.50;39.41
76759;DHT22;65701;45.588;5.186;2023-07-20T14:43:52;29.52;39.33
76759;DHT22;65701;45.588;5.186;2023-07-20T14:46:18;29.54;39.27
76759;DHT22;65701;45.588;5.186;2023-07-20T14:52:09;29.61;39.76
76759;DHT22;65701;45.588;5.186;2023-07-20T14:54:35;29.57;39.40
76759;DHT22;65701;45.588;5.186;2023-07-20T14:57:01;29.51;39.30
76759;DHT22;65701;45.588;5.186;2023-07-20T14:59:29;29.39;38.72
76759;DHT22;65701;45.588;5.186;2023-07-20T15:01:54;29.34;38.78
76759;DHT22;65701;45.588;5.186;2023-07-20T15:04:20;29.33;38.69
76759;DHT22;65701;45.588;5.186;2023-07-20T15:06:45;29.20;38.59
76759;DHT22;65701;45.588;5.186;2023-07-20T15:09:10;29.24;38.83
76759;DHT22;65701;45.588;5.186;2023-07-20T15:11:36;29.20;38.73
76759;DHT22;65701;45.588;5.186;2023-07-20T15:14:02;29.08;38.36
76759;DHT22;65701;45.588;5.186;2023-07-20T15:16:27;29.08;38.29
76759;DHT22;65701;45.588;5.186;2023-07-20T15:18:53;29.08;38.42
76759;DHT22;65701;45.588;5.186;2023-07-20T15:21:18;29.07;38.60
76759;DHT22;65701;45.588;5.186;2023-07-20T15:23:44;29.03;38.30
76759;DHT22;65701;45.588;5.186;2023-07-20T15:26:10;29.02;38.10
76759;DHT22;65701;45.588;5.186;2023-07-20T15:28:37;29.02;37.96
76759;DHT22;65701;45.588;5.186;2023-07-20T15:31:04;28.93;37.66
76759;DHT22;65701;45.588;5.186;2023-07-20T15:33:29;29.00;37.46
76759;DHT22;65701;45.588;5.186;2023-07-20T15:35:55;28.86;36.81
76759;DHT22;65701;45.588;5.186;2023-07-20T15:38:21;28.90;37.12
76759;DHT22;65701;45.588;5.186;2023-07-20T15:40:46;28.82;36.88
76759;DHT22;65701;45.588;5.186;2023-07-20T15:43:14;28.83;36.86
76759;DHT22;65701;45.588;5.186;2023-07-20T15:45:39;28.82;36.96
76759;DHT22;65701;45.588;5.186;2023-07-20T15:48:05;28.83;37.13
76759;DHT22;65701;45.588;5.186;2023-07-20T15:50:30;28.80;37.15
76759;DHT22;65701;45.588;5.186;2023-07-20T15:52:56;28.79;36.76
76759;DHT22;65701;45.588;5.186;2023-07-20T15:55:21;28.69;36.56
76759;DHT22;65701;45.588;5.186;2023-07-20T15:57:47;28.65;36.00